createdAt,value
2018-12-26T00:02:48.754Z,99.90
2018-12-26T00:07:44.505Z,99.90
2018-12-26T00:12:40.262Z,99.90
2018-12-26T00:17:35.995Z,99.90
2018-12-26T00:22:31.818Z,99.90
2018-12-26T00:27:27.550Z,99.90
2018-12-26T00:32:23.265Z,99.90
2018-12-26T00:37:18.990Z,99.90
2018-12-26T00:42:14.712Z,99.90
2018-12-26T00:47:10.452Z,99.90
2018-12-26T00:52:06.206Z,99.90
2018-12-26T00:57:02.064Z,99.90
2018-12-26T01:01:57.765Z,99.90
2018-12-26T01:06:53.485Z,99.90
2018-12-26T01:11:49.276Z,99.90
2018-12-26T01:16:44.981Z,99.90
2018-12-26T01:21:40.729Z,99.90
2018-12-26T01:26:36.454Z,99.90
2018-12-26T01:31:32.173Z,99.90
2018-12-26T01:36:27.907Z,99.90
2018-12-26T01:41:23.630Z,99.90
2018-12-26T01:46:19.338Z,99.90
2018-12-26T01:51:15.133Z,99.90
2018-12-26T01:56:10.859Z,99.90
2018-12-26T02:01:06.588Z,99.90
2018-12-26T02:06:02.309Z,99.90
2018-12-26T02:10:59.014Z,99.90
2018-12-26T02:15:54.714Z,99.90
2018-12-26T02:20:50.665Z,99.90
2018-12-26T02:25:46.374Z,99.90
2018-12-26T02:30:42.077Z,99.90
2018-12-26T02:35:37.805Z,99.90
2018-12-26T02:40:33.522Z,99.90
2018-12-26T02:45:29.238Z,99.90
2018-12-26T02:50:24.950Z,99.90
2018-12-26T02:55:20.670Z,99.90
2018-12-26T03:00:16.382Z,99.90
2018-12-26T03:05:12.091Z,99.90
2018-12-26T03:10:08.086Z,99.90
2018-12-26T03:15:03.933Z,99.90
2018-12-26T03:20:00.676Z,99.90
2018-12-26T03:24:56.402Z,99.90
2018-12-26T03:29:53.389Z,99.90
2018-12-26T03:34:49.118Z,99.90
2018-12-26T03:39:44.843Z,99.90
2018-12-26T03:44:41.050Z,99.90
2018-12-26T03:49:36.762Z,99.90
2018-12-26T03:54:32.589Z,99.90
2018-12-26T03:59:28.334Z,99.90
2018-12-26T04:04:24.162Z,99.90
2018-12-26T04:09:19.973Z,99.90
2018-12-26T04:14:15.677Z,99.90
2018-12-26T04:19:11.386Z,99.90
2018-12-26T04:24:07.121Z,99.90
2018-12-26T04:29:02.853Z,99.90
2018-12-26T04:33:58.579Z,99.90
2018-12-26T04:39:17.286Z,99.90
2018-12-26T04:44:13.207Z,99.90
2018-12-26T04:49:09.035Z,99.90
2018-12-26T04:54:04.761Z,99.90
2018-12-26T04:59:00.520Z,99.90
2018-12-26T05:03:56.264Z,99.90
2018-12-26T05:08:51.991Z,99.90
2018-12-26T05:13:48.019Z,99.90
2018-12-26T05:18:43.846Z,99.90
2018-12-26T05:23:39.578Z,99.90
2018-12-26T05:28:35.314Z,99.90
2018-12-26T05:33:31.126Z,99.90
2018-12-26T05:38:26.853Z,99.90
2018-12-26T05:43:22.573Z,99.90
2018-12-26T05:48:18.281Z,99.90
2018-12-26T05:53:14.005Z,99.90
2018-12-26T05:58:09.742Z,99.90
2018-12-26T06:03:06.897Z,99.90
2018-12-26T06:08:02.633Z,99.90
2018-12-26T06:12:58.325Z,99.90
2018-12-26T06:17:54.034Z,99.90
2018-12-26T06:22:49.735Z,99.90
2018-12-26T06:27:51.376Z,99.90
2018-12-26T06:32:42.753Z,99.90
2018-12-26T06:37:38.473Z,99.90
2018-12-26T06:42:34.174Z,99.90
2018-12-26T06:47:29.909Z,99.90
2018-12-26T06:52:25.645Z,99.90
2018-12-26T06:57:21.373Z,99.90
2018-12-26T07:02:17.101Z,99.90
2018-12-26T07:07:12.837Z,99.90
2018-12-26T07:12:08.554Z,99.90
2018-12-26T07:17:04.266Z,99.90
2018-12-26T07:21:59.965Z,99.90
2018-12-26T07:26:55.685Z,99.90
2018-12-26T07:31:51.401Z,99.90
2018-12-26T07:36:47.122Z,99.90
2018-12-26T07:41:42.839Z,99.90
2018-12-26T07:46:39.412Z,99.90
2018-12-26T07:51:35.136Z,99.90
2018-12-26T07:56:30.865Z,99.90
2018-12-26T08:01:26.816Z,99.90
2018-12-26T08:06:22.573Z,99.90
2018-12-26T08:11:18.334Z,99.90
2018-12-26T08:16:14.073Z,99.90
2018-12-26T08:21:09.915Z,99.90
2018-12-26T08:26:05.648Z,99.90
2018-12-26T08:31:01.758Z,99.90
2018-12-26T08:35:57.634Z,99.90
2018-12-26T08:40:54.562Z,99.90
2018-12-26T08:45:50.360Z,99.90
2018-12-26T08:50:46.685Z,99.90
2018-12-26T08:55:42.425Z,99.90
2018-12-26T09:00:38.179Z,99.90
2018-12-26T09:05:33.974Z,99.90
2018-12-26T09:10:31.288Z,99.90
2018-12-26T09:15:27.095Z,99.90
2018-12-26T09:20:22.983Z,99.90
2018-12-26T09:25:18.796Z,99.90
2018-12-26T09:30:14.715Z,99.90
2018-12-26T09:35:10.979Z,99.90
2018-12-26T09:40:07.167Z,99.90
2018-12-26T09:45:02.906Z,99.90
2018-12-26T09:49:58.682Z,99.90
2018-12-26T09:54:54.429Z,99.90
2018-12-26T09:59:50.165Z,99.90
2018-12-26T10:04:45.959Z,99.90
2018-12-26T10:09:41.799Z,99.70
2018-12-26T10:14:37.582Z,98.40
2018-12-26T10:19:33.361Z,98.30
2018-12-26T10:24:30.330Z,97.50
2018-12-26T10:29:26.223Z,95.90
2018-12-26T10:34:22.616Z,96.00
2018-12-26T10:39:18.373Z,94.90
2018-12-26T10:44:14.241Z,95.50
2018-12-26T10:49:10.058Z,95.90
2018-12-26T10:54:05.988Z,96.00
2018-12-26T10:59:09.715Z,96.60
2018-12-26T11:04:02.315Z,97.10
2018-12-26T11:08:58.085Z,97.70
2018-12-26T11:13:53.832Z,97.90
2018-12-26T11:18:49.922Z,98.00
2018-12-26T11:23:45.954Z,97.30
2018-12-26T11:28:41.817Z,97.00
2018-12-26T11:33:37.562Z,96.70
2018-12-26T11:38:33.397Z,96.60
2018-12-26T11:43:29.118Z,96.40
2018-12-26T11:48:24.859Z,96.40
2018-12-26T11:53:22.376Z,95.90
2018-12-26T11:58:18.148Z,95.10
2018-12-26T12:03:13.986Z,95.00
2018-12-26T12:08:10.807Z,95.10
2018-12-26T12:13:06.646Z,95.10
2018-12-26T12:18:03.414Z,94.30
2018-12-26T12:22:59.254Z,94.00
2018-12-26T12:27:55.002Z,94.20
2018-12-26T12:32:50.803Z,94.50
2018-12-26T12:37:46.543Z,94.10
2018-12-26T12:42:42.269Z,94.00
2018-12-26T12:47:38.088Z,93.80
2018-12-26T12:52:33.815Z,92.70
2018-12-26T12:57:29.709Z,92.30
2018-12-26T13:02:25.417Z,92.60
2018-12-26T13:07:21.190Z,92.90
2018-12-26T13:12:18.459Z,92.50
2018-12-26T13:17:14.207Z,92.60
2018-12-26T13:22:09.936Z,92.50
2018-12-26T13:27:05.685Z,92.30
2018-12-26T13:32:01.437Z,92.10
2018-12-26T13:36:57.170Z,92.00
2018-12-26T13:41:52.909Z,92.10
2018-12-26T13:46:50.023Z,92.60
2018-12-26T13:51:45.786Z,92.70
2018-12-26T13:56:41.550Z,92.70
2018-12-26T14:01:40.258Z,92.60
2018-12-26T14:06:36.002Z,93.10
2018-12-26T14:11:31.834Z,94.00
2018-12-26T14:16:27.617Z,93.90
2018-12-26T14:21:23.325Z,94.00
2018-12-26T14:26:19.025Z,94.50
2018-12-26T14:31:15.122Z,94.80
2018-12-26T14:36:11.993Z,95.00
2018-12-26T14:41:07.807Z,94.90
2018-12-26T14:46:03.925Z,95.60
2018-12-26T14:50:59.612Z,95.60
2018-12-26T14:55:57.472Z,96.10
2018-12-26T15:00:53.377Z,96.50
2018-12-26T15:05:49.682Z,96.70
2018-12-26T15:10:45.735Z,96.80
2018-12-26T15:15:41.779Z,96.30
2018-12-26T15:20:37.790Z,96.70
2018-12-26T15:25:34.161Z,97.40
2018-12-26T15:30:30.190Z,97.60
2018-12-26T15:35:27.629Z,98.00
2018-12-26T15:40:23.794Z,98.30
2018-12-26T15:45:19.858Z,98.70
2018-12-26T15:50:15.650Z,99.20
2018-12-26T15:55:13.514Z,99.50
2018-12-26T16:00:10.379Z,99.60
2018-12-26T16:05:06.772Z,99.90
2018-12-26T16:10:05.370Z,99.90
2018-12-26T16:15:03.506Z,99.90
2018-12-26T16:20:02.692Z,99.90
2018-12-26T16:24:58.137Z,99.90
2018-12-26T16:29:54.483Z,99.90
2018-12-26T16:34:50.309Z,99.90
2018-12-26T16:39:46.153Z,99.90
2018-12-26T16:44:42.120Z,99.90
2018-12-26T16:49:38.324Z,99.90
2018-12-26T16:54:34.344Z,99.90
2018-12-26T16:59:30.455Z,99.90
2018-12-26T17:04:26.256Z,99.90
2018-12-26T17:09:22.234Z,99.90
2018-12-26T17:14:19.188Z,99.90
2018-12-26T17:19:16.909Z,99.90
2018-12-26T17:24:16.627Z,99.90
2018-12-26T17:29:11.441Z,99.90
2018-12-26T17:34:09.579Z,99.90
2018-12-26T17:39:08.559Z,99.90
2018-12-26T17:44:04.743Z,99.90
2018-12-26T17:49:01.000Z,99.90
2018-12-26T17:54:37.498Z,99.90
2018-12-26T18:00:14.635Z,99.90
2018-12-26T18:05:17.491Z,99.90
2018-12-26T18:10:14.099Z,99.90
2018-12-26T18:15:12.178Z,99.90
2018-12-26T18:20:10.554Z,99.90
2018-12-26T18:25:07.672Z,99.90
2018-12-26T18:30:05.015Z,99.90
2018-12-26T18:35:01.324Z,99.90
2018-12-26T18:39:58.634Z,99.90
2018-12-26T18:44:55.155Z,99.90
2018-12-26T18:49:52.003Z,99.90
2018-12-26T18:54:48.107Z,99.90
2018-12-26T18:59:45.249Z,99.90
2018-12-26T19:04:41.231Z,99.90
2018-12-26T19:09:38.405Z,99.90
2018-12-26T19:14:35.569Z,99.90
2018-12-26T19:19:32.050Z,99.90
2018-12-26T19:24:28.459Z,99.90
2018-12-26T19:29:24.848Z,99.90
2018-12-26T19:34:21.943Z,99.90
2018-12-26T19:39:18.816Z,99.90
2018-12-26T19:44:15.053Z,99.90
2018-12-26T19:49:16.114Z,99.90
2018-12-26T19:54:18.529Z,99.90
2018-12-26T19:59:14.417Z,99.90
2018-12-26T20:04:11.059Z,99.90
2018-12-26T20:09:08.716Z,99.90
2018-12-26T20:14:04.982Z,99.90
2018-12-26T20:19:01.191Z,99.90
2018-12-26T20:23:57.172Z,99.90
2018-12-26T20:28:56.316Z,99.90
2018-12-26T20:33:54.016Z,99.90
2018-12-26T20:38:50.164Z,99.90
